createdAt,value
2023-03-07T00:01:42.184Z,99287.00
2023-03-07T00:04:11.994Z,99290.00
2023-03-07T00:06:41.146Z,99294.00
2023-03-07T00:09:11.319Z,99307.00
2023-03-07T00:11:40.473Z,99311.00
2023-03-07T00:14:10.619Z,99310.00
2023-03-07T00:16:39.721Z,99315.00
2023-03-07T00:19:09.090Z,99323.00
2023-03-07T00:21:38.274Z,99325.00
2023-03-07T00:24:07.952Z,99326.00
2023-03-07T00:26:40.644Z,99328.00
2023-03-07T00:29:11.373Z,99335.00
2023-03-07T00:31:40.883Z,99337.00
2023-03-07T00:34:10.005Z,99338.00
2023-03-07T00:36:39.211Z,99348.00
2023-03-07T00:39:09.306Z,99358.00
2023-03-07T00:41:38.733Z,99360.00
2023-03-07T00:44:08.351Z,99360.00
2023-03-07T00:46:37.481Z,99368.00
2023-03-07T00:49:06.595Z,99362.00
2023-03-07T00:51:35.733Z,99372.00
2023-03-07T00:54:05.243Z,99368.00
2023-03-07T00:56:34.346Z,99366.00
2023-03-07T00:59:03.944Z,99375.00
2023-03-07T01:01:33.393Z,99376.00
2023-03-07T01:04:02.900Z,99374.00
2023-03-07T01:06:34.933Z,99388.00
2023-03-07T01:09:08.558Z,99378.00
2023-03-07T01:11:39.494Z,99392.00
2023-03-07T01:14:08.923Z,99395.00
2023-03-07T01:16:40.386Z,99392.00
2023-03-07T01:19:15.689Z,99389.00
2023-03-07T01:21:45.946Z,99394.00
2023-03-07T01:24:17.519Z,99397.00
2023-03-07T01:26:53.123Z,99398.00
2023-03-07T01:29:22.366Z,99403.00
2023-03-07T01:31:51.630Z,99406.00
2023-03-07T01:34:23.837Z,99407.00
2023-03-07T01:36:55.919Z,99410.00
2023-03-07T01:39:26.934Z,99413.00
2023-03-07T01:41:58.933Z,99417.00
2023-03-07T01:44:28.673Z,99414.00
2023-03-07T01:47:02.065Z,99416.00
2023-03-07T01:49:56.871Z,99424.00
2023-03-07T01:53:03.559Z,99427.00
2023-03-07T01:55:38.134Z,99424.00
2023-03-07T01:58:18.939Z,99427.00
2023-03-07T02:00:53.152Z,99437.00
2023-03-07T02:03:32.132Z,99441.00
2023-03-07T02:06:12.572Z,99445.00
2023-03-07T02:08:43.699Z,99454.00
2023-03-07T02:11:13.640Z,99457.00
2023-03-07T02:13:42.819Z,99447.00
2023-03-07T02:16:12.390Z,99446.00
2023-03-07T02:18:47.209Z,99453.00
2023-03-07T02:21:41.692Z,99446.00
2023-03-07T02:24:38.291Z,99449.00
2023-03-07T02:27:08.062Z,99451.00
2023-03-07T02:29:37.602Z,99453.00
2023-03-07T02:32:07.185Z,99457.00
2023-03-07T02:34:36.995Z,99457.00
2023-03-07T02:37:21.526Z,99468.00
2023-03-07T02:39:51.115Z,99468.00
2023-03-07T02:42:30.101Z,99459.00
2023-03-07T02:45:06.312Z,99462.00
2023-03-07T02:47:35.517Z,99467.00
2023-03-07T02:50:05.506Z,99460.00
2023-03-07T02:52:34.765Z,99461.00
2023-03-07T02:55:04.305Z,99455.00
2023-03-07T02:57:33.548Z,99466.00
2023-03-07T03:00:03.075Z,99463.00
2023-03-07T03:02:32.338Z,99454.00
2023-03-07T03:05:01.572Z,99460.00
2023-03-07T03:07:30.790Z,99462.00
2023-03-07T03:10:00.005Z,99465.00
2023-03-07T03:12:29.245Z,99463.00
2023-03-07T03:14:58.460Z,99461.00
2023-03-07T03:17:27.738Z,99448.00
2023-03-07T03:19:57.342Z,99455.00
2023-03-07T03:22:26.555Z,99445.00
2023-03-07T03:24:55.756Z,99447.00
2023-03-07T03:27:24.993Z,99444.00
2023-03-07T03:29:56.456Z,99442.00
2023-03-07T03:32:25.688Z,99441.00
2023-03-07T03:34:54.935Z,99441.00
2023-03-07T03:37:24.176Z,99437.00
2023-03-07T03:39:55.701Z,99428.00
2023-03-07T03:42:25.116Z,99430.00
2023-03-07T03:44:54.318Z,99423.00
2023-03-07T03:47:23.595Z,99430.00
2023-03-07T03:49:52.894Z,99425.00
2023-03-07T03:52:22.138Z,99422.00
2023-03-07T03:54:53.215Z,99421.00
2023-03-07T03:57:22.821Z,99423.00
2023-03-07T03:59:52.562Z,99418.00
2023-03-07T04:02:22.557Z,99413.00
2023-03-07T04:04:51.827Z,99412.00
2023-03-07T04:07:21.056Z,99405.00
2023-03-07T04:09:50.285Z,99404.00
2023-03-07T04:12:19.584Z,99399.00
2023-03-07T04:14:48.828Z,99397.00
2023-03-07T04:17:18.031Z,99394.00
2023-03-07T04:19:47.252Z,99395.00
2023-03-07T04:22:16.596Z,99386.00
2023-03-07T04:24:46.201Z,99381.00
2023-03-07T04:27:15.373Z,99380.00
2023-03-07T04:29:44.473Z,99379.00
2023-03-07T04:32:13.676Z,99373.00
2023-03-07T04:34:42.846Z,99365.00
2023-03-07T04:37:11.954Z,99359.00
2023-03-07T04:39:41.056Z,99362.00
2023-03-07T04:42:12.369Z,99359.00
2023-03-07T04:44:41.422Z,99362.00
2023-03-07T04:47:10.489Z,99360.00
2023-03-07T04:49:39.683Z,99352.00
2023-03-07T04:52:08.921Z,99349.00
2023-03-07T04:54:38.006Z,99348.00
2023-03-07T04:57:07.230Z,99341.00
2023-03-07T04:59:40.030Z,99338.00
2023-03-07T05:02:13.007Z,99334.00
2023-03-07T05:04:42.119Z,99327.00
2023-03-07T05:07:11.324Z,99327.00
2023-03-07T05:09:40.462Z,99325.00
2023-03-07T05:12:10.453Z,99314.00
2023-03-07T05:14:39.547Z,99297.00
2023-03-07T05:17:08.936Z,99300.00
2023-03-07T05:19:38.083Z,99299.00
2023-03-07T05:22:07.289Z,99296.00
2023-03-07T05:24:37.581Z,99283.00
2023-03-07T05:27:07.047Z,99285.00
2023-03-07T05:29:36.172Z,99283.00
2023-03-07T05:32:05.845Z,99280.00
2023-03-07T05:34:34.982Z,99270.00
2023-03-07T05:37:04.346Z,99276.00
2023-03-07T05:39:33.457Z,99271.00
2023-03-07T05:42:02.551Z,99262.00
2023-03-07T05:44:33.960Z,99258.00
2023-03-07T05:47:03.372Z,99259.00
2023-03-07T05:49:32.503Z,99257.00
2023-03-07T05:52:01.727Z,99240.00
2023-03-07T05:54:30.850Z,99247.00
2023-03-07T05:57:00.444Z,99237.00
2023-03-07T05:59:29.549Z,99237.00
2023-03-07T06:01:58.647Z,99230.00
2023-03-07T06:04:27.861Z,99235.00
2023-03-07T06:06:57.192Z,99222.00
2023-03-07T06:09:26.882Z,99220.00
2023-03-07T06:11:56.097Z,99210.00
2023-03-07T06:14:25.835Z,99208.00
2023-03-07T06:16:55.152Z,99199.00
2023-03-07T06:19:24.409Z,99193.00
2023-03-07T06:21:53.533Z,99192.00
2023-03-07T06:24:22.676Z,99180.00
2023-03-07T06:26:51.821Z,99186.00
2023-03-07T06:29:20.946Z,99175.00
2023-03-07T06:31:50.137Z,99171.00
2023-03-07T06:34:19.509Z,99168.00
2023-03-07T06:36:49.732Z,99167.00
2023-03-07T06:39:22.013Z,99149.00
2023-03-07T06:41:52.502Z,99155.00
2023-03-07T06:44:21.730Z,99145.00
2023-03-07T06:46:50.809Z,99147.00
2023-03-07T06:49:19.941Z,99145.00
2023-03-07T06:51:49.184Z,99131.00
2023-03-07T06:54:18.575Z,99127.00
2023-03-07T06:56:47.681Z,99125.00
2023-03-07T06:59:16.994Z,99113.00
2023-03-07T07:01:46.276Z,99118.00
2023-03-07T07:04:15.677Z,99108.00
2023-03-07T07:06:44.791Z,99104.00
2023-03-07T07:09:15.346Z,99101.00
2023-03-07T07:11:44.477Z,99103.00
2023-03-07T07:14:13.927Z,99092.00
2023-03-07T07:16:43.431Z,99090.00
2023-03-07T07:19:12.626Z,99090.00
2023-03-07T07:21:41.799Z,99077.00
2023-03-07T07:24:14.360Z,99075.00
2023-03-07T07:26:43.851Z,99071.00
2023-03-07T07:29:13.967Z,99063.00
2023-03-07T07:31:43.659Z,99059.00
2023-03-07T07:34:13.176Z,99050.00
2023-03-07T07:36:43.396Z,99052.00
2023-03-07T07:39:13.948Z,99052.00
2023-03-07T07:41:43.367Z,99036.00
2023-03-07T07:44:13.951Z,99034.00
2023-03-07T07:46:43.180Z,99031.00
2023-03-07T07:49:12.362Z,99029.00
2023-03-07T07:51:42.119Z,99023.00
2023-03-07T07:54:11.912Z,99036.00
2023-03-07T07:56:41.077Z,99021.00
2023-03-07T07:59:10.676Z,99016.00
2023-03-07T08:01:40.235Z,99015.00
2023-03-07T08:04:09.593Z,99009.00
2023-03-07T08:06:38.886Z,99006.00
2023-03-07T08:09:08.083Z,99005.00
2023-03-07T08:11:37.299Z,98998.00
2023-03-07T08:14:06.426Z,98989.00
2023-03-07T08:16:35.523Z,98992.00
2023-03-07T08:19:05.248Z,98987.00
2023-03-07T08:21:34.353Z,98985.00
2023-03-07T08:24:05.114Z,98978.00
2023-03-07T08:26:34.716Z,98982.00
2023-03-07T08:29:04.580Z,98969.00
2023-03-07T08:31:34.030Z,98977.00
2023-03-07T08:34:03.301Z,98978.00
2023-03-07T08:36:32.691Z,98974.00
2023-03-07T08:39:01.956Z,98975.00
2023-03-07T08:41:31.243Z,98975.00
2023-03-07T08:44:00.393Z,98974.00
2023-03-07T08:46:29.710Z,98974.00
2023-03-07T08:48:59.002Z,98962.00
2023-03-07T08:51:28.227Z,98960.00
2023-03-07T08:53:58.742Z,98957.00
2023-03-07T08:56:28.315Z,98957.00
2023-03-07T08:58:57.610Z,98955.00
2023-03-07T09:01:26.986Z,98957.00
2023-03-07T09:03:56.161Z,98952.00
2023-03-07T09:06:25.870Z,98953.00
2023-03-07T09:08:55.321Z,98952.00
2023-03-07T09:11:24.766Z,98944.00
2023-03-07T09:13:53.946Z,98950.00
2023-03-07T09:16:24.594Z,98947.00
2023-03-07T09:18:53.854Z,98948.00
2023-03-07T09:21:23.240Z,98949.00
2023-03-07T09:23:52.431Z,98948.00
2023-03-07T09:26:22.187Z,98948.00
2023-03-07T09:28:51.413Z,98948.00
2023-03-07T09:31:21.054Z,98949.00
2023-03-07T09:33:50.317Z,98943.00
2023-03-07T09:36:21.157Z,98947.00
2023-03-07T09:38:50.410Z,98956.00
2023-03-07T09:41:53.590Z,98952.00
2023-03-07T09:44:34.729Z,98952.00
2023-03-07T09:47:25.203Z,98954.00
2023-03-07T09:49:55.459Z,98950.00
2023-03-07T09:52:34.443Z,98948.00
2023-03-07T09:55:16.691Z,98946.00
2023-03-07T09:58:00.083Z,98949.00
2023-03-07T10:00:44.077Z,98953.00
2023-03-07T10:03:54.369Z,98959.00
2023-03-07T10:06:33.891Z,98960.00
2023-03-07T10:09:06.437Z,98961.00
2023-03-07T10:12:09.290Z,98956.00
2023-03-07T10:14:55.976Z,98962.00
2023-03-07T10:17:36.392Z,98962.00
2023-03-07T10:20:37.403Z,98966.00
2023-03-07T10:23:42.776Z,98952.00
2023-03-07T10:26:36.847Z,98960.00
2023-03-07T10:29:28.209Z,98952.00
2023-03-07T10:32:12.447Z,98964.00
2023-03-07T10:34:43.117Z,98963.00
2023-03-07T10:37:37.051Z,98956.00
2023-03-07T10:40:06.765Z,98963.00
2023-03-07T10:42:40.585Z,98969.00
2023-03-07T10:45:14.779Z,98968.00
2023-03-07T10:47:44.861Z,98962.00
2023-03-07T10:51:13.120Z,98973.00
2023-03-07T10:53:42.737Z,98976.00
2023-03-07T10:56:20.619Z,98976.00
2023-03-07T10:59:04.397Z,98975.00
2023-03-07T11:01:35.489Z,98982.00
2023-03-07T11:04:26.132Z,98985.00
2023-03-07T11:07:01.707Z,98976.00
2023-03-07T11:09:48.819Z,98992.00
2023-03-07T11:12:30.587Z,98998.00
2023-03-07T11:15:13.388Z,98990.00
2023-03-07T11:17:45.309Z,98989.00
2023-03-07T11:20:31.842Z,98986.00
2023-03-07T11:23:34.372Z,98996.00
2023-03-07T11:26:24.585Z,98992.00
2023-03-07T11:29:19.944Z,99003.00
2023-03-07T11:32:25.520Z,99010.00
2023-03-07T11:35:07.683Z,99005.00
2023-03-07T11:38:36.538Z,99007.00
2023-03-07T11:41:29.812Z,99017.00
2023-03-07T11:44:24.666Z,99024.00
2023-03-07T11:47:21.524Z,99024.00
2023-03-07T11:49:56.678Z,99027.00
2023-03-07T11:53:03.048Z,99033.00
2023-03-07T11:55:46.629Z,99033.00
2023-03-07T11:58:34.531Z,99027.00
2023-03-07T12:01:53.042Z,99029.00
2023-03-07T12:04:47.924Z,99040.00
2023-03-07T12:07:51.830Z,99039.00
2023-03-07T12:10:39.249Z,99055.00
2023-03-07T12:13:25.740Z,99053.00
2023-03-07T12:16:28.578Z,99054.00
2023-03-07T12:19:34.885Z,99053.00
2023-03-07T12:22:29.880Z,99059.00
2023-03-07T12:25:13.451Z,99062.00
2023-03-07T12:28:19.030Z,99070.00
2023-03-07T12:31:03.884Z,99067.00
2023-03-07T12:34:18.399Z,99071.00
2023-03-07T12:37:48.525Z,99086.00
2023-03-07T12:40:48.488Z,99085.00
2023-03-07T12:43:43.129Z,99094.00
2023-03-07T12:46:58.880Z,99095.00
2023-03-07T12:50:03.693Z,99103.00
2023-03-07T12:53:20.256Z,99103.00
2023-03-07T12:55:59.506Z,99107.00
2023-03-07T12:59:09.481Z,99114.00
2023-03-07T13:02:18.817Z,99121.00
2023-03-07T13:04:47.988Z,99124.00
2023-03-07T13:07:33.021Z,99120.00
2023-03-07T13:10:08.401Z,99128.00
2023-03-07T13:12:39.606Z,99131.00
2023-03-07T13:15:22.314Z,99137.00
2023-03-07T13:17:51.358Z,99141.00
2023-03-07T13:20:43.288Z,99141.00
2023-03-07T13:23:29.081Z,99143.00
2023-03-07T13:26:02.237Z,99150.00
2023-03-07T13:28:47.223Z,99155.00
2023-03-07T13:31:26.396Z,99153.00
2023-03-07T13:33:55.824Z,99157.00
2023-03-07T13:36:39.705Z,99160.00
2023-03-07T13:39:37.736Z,99165.00
2023-03-07T13:42:41.114Z,99174.00
2023-03-07T13:45:41.901Z,99170.00
2023-03-07T13:48:16.562Z,99171.00
2023-03-07T13:50:57.850Z,99172.00
2023-03-07T13:53:43.229Z,99179.00
2023-03-07T13:56:18.778Z,99182.00
2023-03-07T13:59:08.476Z,99186.00
2023-03-07T14:02:00.352Z,99196.00
2023-03-07T14:04:52.811Z,99196.00
2023-03-07T14:07:40.865Z,99198.00
2023-03-07T14:10:33.701Z,99196.00
2023-03-07T14:13:21.880Z,99194.00
2023-03-07T14:16:48.226Z,99193.00
2023-03-07T14:19:45.387Z,99194.00
2023-03-07T14:22:55.777Z,99194.00
2023-03-07T14:25:32.036Z,99197.00
2023-03-07T14:28:29.605Z,99205.00
2023-03-07T14:31:08.129Z,99199.00
2023-03-07T14:33:40.397Z,99210.00
2023-03-07T14:36:30.220Z,99198.00
2023-03-07T14:39:05.892Z,99210.00
2023-03-07T14:41:46.414Z,99200.00
2023-03-07T14:44:53.007Z,99206.00
2023-03-07T14:47:52.694Z,99215.00
2023-03-07T14:50:24.586Z,99216.00
2023-03-07T14:53:08.628Z,99208.00
2023-03-07T14:55:45.911Z,99213.00
2023-03-07T14:58:33.457Z,99213.00
2023-03-07T15:01:16.995Z,99212.00
2023-03-07T15:03:52.511Z,99215.00
2023-03-07T15:06:25.809Z,99212.00
2023-03-07T15:08:59.421Z,99216.00
2023-03-07T15:11:45.642Z,99220.00
2023-03-07T15:14:36.615Z,99214.00
2023-03-07T15:17:19.330Z,99216.00
2023-03-07T15:20:12.255Z,99212.00
2023-03-07T15:22:44.867Z,99208.00
2023-03-07T15:25:26.228Z,99216.00
2023-03-07T15:28:10.124Z,99212.00
2023-03-07T15:30:40.575Z,99221.00
2023-03-07T15:33:21.423Z,99216.00
2023-03-07T15:36:13.941Z,99219.00
2023-03-07T15:38:52.677Z,99217.00
2023-03-07T15:41:36.805Z,99224.00
2023-03-07T15:44:19.004Z,99218.00
2023-03-07T15:47:00.946Z,99216.00
2023-03-07T15:49:55.171Z,99219.00
2023-03-07T15:52:35.004Z,99218.00
2023-03-07T15:55:17.499Z,99215.00
2023-03-07T15:58:06.041Z,99216.00
2023-03-07T16:00:43.236Z,99219.00
2023-03-07T16:03:31.136Z,99212.00
2023-03-07T16:06:05.027Z,99219.00
2023-03-07T16:08:34.283Z,99211.00
2023-03-07T16:11:08.970Z,99215.00
2023-03-07T16:13:44.946Z,99217.00
2023-03-07T16:16:30.604Z,99214.00
2023-03-07T16:19:00.033Z,99213.00
2023-03-07T16:21:29.403Z,99213.00
2023-03-07T16:23:58.500Z,99210.00
2023-03-07T16:26:28.240Z,99201.00
2023-03-07T16:28:57.497Z,99199.00
2023-03-07T16:31:26.897Z,99200.00
2023-03-07T16:33:56.926Z,99208.00
2023-03-07T16:36:26.100Z,99202.00
2023-03-07T16:38:55.416Z,99201.00
2023-03-07T16:41:24.569Z,99198.00
2023-03-07T16:44:00.665Z,99200.00
2023-03-07T16:46:31.041Z,99198.00
2023-03-07T16:49:00.142Z,99196.00
2023-03-07T16:51:31.422Z,99193.00
2023-03-07T16:54:01.202Z,99195.00
2023-03-07T16:56:39.783Z,99195.00
2023-03-07T16:59:14.428Z,99193.00
2023-03-07T17:01:47.801Z,99198.00
2023-03-07T17:04:17.262Z,99197.00
2023-03-07T17:06:48.829Z,99196.00
2023-03-07T17:09:21.574Z,99196.00
2023-03-07T17:11:53.741Z,99198.00
2023-03-07T17:14:22.930Z,99191.00
2023-03-07T17:16:52.811Z,99192.00
2023-03-07T17:19:32.285Z,99191.00
2023-03-07T17:22:04.190Z,99190.00
2023-03-07T17:24:33.352Z,99186.00
2023-03-07T17:27:04.580Z,99185.00
2023-03-07T17:29:44.588Z,99175.00
2023-03-07T17:32:13.998Z,99171.00
2023-03-07T17:34:43.631Z,99170.00
2023-03-07T17:37:14.415Z,99163.00
2023-03-07T17:39:44.861Z,99166.00
2023-03-07T17:42:14.638Z,99155.00
2023-03-07T17:44:43.923Z,99154.00
2023-03-07T17:47:13.152Z,99162.00
2023-03-07T17:49:42.352Z,99156.00
2023-03-07T17:52:15.583Z,99147.00
2023-03-07T17:54:46.872Z,99156.00
2023-03-07T17:57:17.029Z,99153.00
2023-03-07T17:59:46.348Z,99150.00
2023-03-07T18:02:16.742Z,99152.00
2023-03-07T18:04:46.164Z,99144.00
2023-03-07T18:07:15.364Z,99142.00
2023-03-07T18:09:44.570Z,99143.00
2023-03-07T18:12:13.782Z,99138.00
2023-03-07T18:14:43.123Z,99138.00
2023-03-07T18:17:12.367Z,99137.00
2023-03-07T18:19:41.769Z,99127.00
2023-03-07T18:22:10.938Z,99131.00
2023-03-07T18:24:40.181Z,99132.00
2023-03-07T18:27:09.770Z,99126.00
2023-03-07T18:29:38.968Z,99129.00
2023-03-07T18:32:08.459Z,99124.00
2023-03-07T18:34:38.496Z,99127.00
2023-03-07T18:37:09.198Z,99128.00
2023-03-07T18:39:38.611Z,99124.00
2023-03-07T18:42:08.232Z,99121.00
2023-03-07T18:44:41.783Z,99120.00
2023-03-07T18:47:11.531Z,99113.00
2023-03-07T18:49:41.237Z,99121.00
2023-03-07T18:52:10.402Z,99112.00
2023-03-07T18:54:39.731Z,99108.00
2023-03-07T18:57:08.903Z,99111.00
2023-03-07T18:59:38.080Z,99109.00
2023-03-07T19:02:07.428Z,99108.00
2023-03-07T19:04:36.586Z,99105.00
2023-03-07T19:07:05.843Z,99103.00
2023-03-07T19:09:35.188Z,99100.00
2023-03-07T19:12:04.398Z,99100.00
2023-03-07T19:14:34.168Z,99101.00
2023-03-07T19:17:03.398Z,99099.00
2023-03-07T19:19:32.653Z,99092.00
2023-03-07T19:22:01.891Z,99095.00
2023-03-07T19:24:31.160Z,99090.00
2023-03-07T19:27:00.401Z,99089.00
2023-03-07T19:29:29.683Z,99094.00
2023-03-07T19:31:59.034Z,99089.00
2023-03-07T19:34:28.356Z,99092.00
2023-03-07T19:36:57.531Z,99087.00
2023-03-07T19:39:26.815Z,99092.00
2023-03-07T19:41:56.029Z,99092.00
2023-03-07T19:44:25.795Z,99099.00
2023-03-07T19:46:55.015Z,99101.00
2023-03-07T19:49:27.338Z,99106.00
2023-03-07T19:51:56.521Z,99109.00
2023-03-07T19:54:25.798Z,99097.00
2023-03-07T19:56:54.982Z,99102.00
2023-03-07T19:59:24.159Z,99107.00
2023-03-07T20:01:53.388Z,99106.00
2023-03-07T20:04:22.687Z,99103.00
2023-03-07T20:06:51.953Z,99099.00
2023-03-07T20:09:21.201Z,99097.00
2023-03-07T20:11:50.579Z,99097.00
2023-03-07T20:14:19.825Z,99104.00
2023-03-07T20:16:49.053Z,99089.00
2023-03-07T20:19:19.323Z,99091.00
2023-03-07T20:21:51.705Z,99095.00
2023-03-07T20:24:21.274Z,99092.00
2023-03-07T20:26:50.551Z,99094.00
2023-03-07T20:29:19.782Z,99092.00
2023-03-07T20:31:51.760Z,99091.00
2023-03-07T20:34:23.068Z,99093.00
2023-03-07T20:36:55.691Z,99090.00
2023-03-07T20:39:24.947Z,99098.00
2023-03-07T20:41:54.106Z,99094.00
2023-03-07T20:44:23.565Z,99100.00
2023-03-07T20:46:52.754Z,99098.00
2023-03-07T20:49:22.089Z,99098.00
2023-03-07T20:51:51.292Z,99101.00
2023-03-07T20:54:21.323Z,99102.00
2023-03-07T20:56:50.584Z,99100.00
2023-03-07T20:59:22.539Z,99103.00
2023-03-07T21:01:51.825Z,99110.00
2023-03-07T21:04:22.005Z,99105.00
2023-03-07T21:06:52.225Z,99103.00
2023-03-07T21:09:21.691Z,99101.00
2023-03-07T21:11:51.747Z,99113.00
2023-03-07T21:14:22.277Z,99116.00
2023-03-07T21:16:51.871Z,99112.00
2023-03-07T21:19:21.923Z,99118.00
2023-03-07T21:21:51.126Z,99119.00
2023-03-07T21:24:20.324Z,99106.00
2023-03-07T21:26:49.675Z,99111.00
2023-03-07T21:29:19.075Z,99106.00
2023-03-07T21:31:48.247Z,99107.00
2023-03-07T21:34:17.519Z,99107.00
2023-03-07T21:36:48.604Z,99107.00
2023-03-07T21:39:17.979Z,99106.00
2023-03-07T21:41:47.282Z,99103.00
2023-03-07T21:44:16.509Z,99106.00
2023-03-07T21:46:46.219Z,99108.00
2023-03-07T21:49:15.501Z,99115.00
2023-03-07T21:51:44.789Z,99116.00
2023-03-07T21:54:14.093Z,99113.00
2023-03-07T21:56:43.310Z,99109.00
2023-03-07T21:59:13.193Z,99116.00
2023-03-07T22:01:42.458Z,99117.00
2023-03-07T22:04:11.689Z,99120.00
2023-03-07T22:06:41.027Z,99123.00
2023-03-07T22:09:10.248Z,99123.00
2023-03-07T22:11:39.528Z,99127.00
2023-03-07T22:14:08.694Z,99136.00
2023-03-07T22:16:38.015Z,99128.00
2023-03-07T22:19:07.790Z,99127.00
2023-03-07T22:21:36.939Z,99135.00
2023-03-07T22:24:06.448Z,99130.00
2023-03-07T22:26:35.975Z,99138.00
2023-03-07T22:29:05.884Z,99147.00
2023-03-07T22:31:35.162Z,99155.00
2023-03-07T22:34:04.420Z,99155.00
2023-03-07T22:36:33.650Z,99157.00
2023-03-07T22:39:02.908Z,99147.00
2023-03-07T22:41:32.170Z,99150.00
2023-03-07T22:44:01.376Z,99156.00
2023-03-07T22:46:30.683Z,99150.00
2023-03-07T22:48:59.940Z,99158.00
2023-03-07T22:51:29.155Z,99156.00
2023-03-07T22:53:58.490Z,99160.00
2023-03-07T22:56:29.254Z,99169.00
2023-03-07T22:58:58.888Z,99159.00
2023-03-07T23:01:30.345Z,99162.00
2023-03-07T23:04:01.761Z,99175.00
2023-03-07T23:06:33.640Z,99172.00
2023-03-07T23:09:04.153Z,99184.00
2023-03-07T23:11:36.808Z,99184.00
2023-03-07T23:14:06.128Z,99192.00
2023-03-07T23:16:37.208Z,99192.00
2023-03-07T23:19:07.316Z,99198.00
2023-03-07T23:21:37.729Z,99206.00
2023-03-07T23:24:07.751Z,99205.00
2023-03-07T23:26:39.867Z,99205.00
2023-03-07T23:29:10.886Z,99216.00
2023-03-07T23:31:43.741Z,99222.00
2023-03-07T23:34:21.617Z,99225.00
2023-03-07T23:36:50.798Z,99225.00
2023-03-07T23:39:20.073Z,99230.00
2023-03-07T23:41:49.325Z,99230.00
2023-03-07T23:44:18.742Z,99231.00
2023-03-07T23:46:47.976Z,99235.00
2023-03-07T23:49:17.227Z,99234.00
2023-03-07T23:51:46.539Z,99234.00
2023-03-07T23:54:15.996Z,99246.00
2023-03-07T23:56:45.191Z,99239.00
2023-03-07T23:59:14.648Z,99248.00
